createdAt,value
2018-05-03T00:00:08.906Z,12.20
2018-05-03T00:02:37.273Z,11.20
2018-05-03T00:05:05.592Z,11.30
2018-05-03T00:07:33.929Z,12.27
2018-05-03T00:10:02.279Z,11.97
2018-05-03T00:12:30.603Z,13.33
2018-05-03T00:14:58.937Z,12.27
2018-05-03T00:17:27.261Z,12.43
2018-05-03T00:19:55.619Z,12.80
2018-05-03T00:22:24.360Z,12.60
2018-05-03T00:24:52.734Z,13.63
2018-05-03T00:27:21.081Z,13.50
2018-05-03T00:29:49.496Z,11.30
2018-05-03T00:32:17.875Z,11.53
2018-05-03T00:34:46.182Z,11.70
2018-05-03T00:37:14.539Z,11.87
2018-05-03T00:39:42.907Z,13.47
2018-05-03T00:42:11.232Z,15.57
2018-05-03T00:44:39.575Z,13.60
2018-05-03T00:47:07.918Z,12.37
2018-05-03T00:49:36.347Z,12.60
2018-05-03T00:52:04.693Z,13.10
2018-05-03T00:54:44.832Z,14.43
2018-05-03T00:57:13.177Z,13.53
2018-05-03T00:59:41.535Z,11.73
2018-05-03T01:02:09.887Z,13.03
2018-05-03T01:04:38.225Z,13.47
2018-05-03T01:07:06.567Z,14.33
2018-05-03T01:09:34.919Z,13.77
2018-05-03T01:12:03.287Z,14.73
2018-05-03T01:14:31.616Z,13.37
2018-05-03T01:17:00.003Z,13.73
2018-05-03T01:19:28.428Z,14.07
2018-05-03T01:21:56.809Z,14.93
2018-05-03T01:24:25.162Z,14.97
2018-05-03T01:26:53.593Z,14.63
2018-05-03T01:29:21.944Z,15.07
2018-05-03T01:31:50.301Z,19.20
2018-05-03T01:34:18.645Z,19.33
2018-05-03T01:36:46.969Z,19.37
2018-05-03T01:39:15.318Z,19.63
2018-05-03T01:41:43.678Z,20.77
2018-05-03T01:44:12.043Z,21.70
2018-05-03T01:46:41.793Z,22.07
2018-05-03T01:49:10.147Z,22.07
2018-05-03T01:51:38.528Z,23.17
2018-05-03T01:54:06.912Z,21.87
2018-05-03T01:56:35.277Z,23.87
2018-05-03T01:59:03.671Z,24.20
2018-05-03T02:01:32.125Z,24.90
2018-05-03T02:04:01.236Z,20.67
2018-05-03T02:06:29.550Z,22.40
2018-05-03T02:08:57.911Z,21.90
2018-05-03T02:11:26.356Z,26.07
2018-05-03T02:13:54.751Z,22.07
2018-05-03T02:16:23.140Z,23.40
2018-05-03T02:18:51.459Z,22.33
2018-05-03T02:21:19.837Z,26.20
2018-05-03T02:23:48.219Z,23.87
2018-05-03T02:26:16.583Z,24.93
2018-05-03T02:28:44.890Z,25.67
2018-05-03T02:31:13.224Z,24.20
2018-05-03T02:33:41.599Z,25.93
2018-05-03T02:36:09.967Z,28.70
2018-05-03T02:38:38.325Z,28.20
2018-05-03T02:41:06.739Z,28.50
2018-05-03T02:43:35.066Z,32.90
2018-05-03T02:46:03.416Z,34.63
2018-05-03T02:48:31.743Z,31.83
2018-05-03T02:51:00.108Z,31.80
2018-05-03T02:53:28.498Z,32.57
2018-05-03T02:55:56.816Z,32.53
2018-05-03T02:58:37.054Z,32.63
2018-05-03T03:01:23.007Z,33.23
2018-05-03T03:04:08.820Z,28.60
2018-05-03T03:06:54.733Z,32.03
2018-05-03T03:13:09.910Z,28.63
2018-05-03T03:19:06.850Z,30.93
2018-05-03T03:21:53.308Z,33.67
2018-05-03T03:27:39.855Z,36.10
2018-05-03T03:30:19.995Z,34.50
2018-05-03T03:33:00.384Z,32.67
2018-05-03T03:38:48.372Z,33.30
2018-05-03T03:41:28.737Z,31.63
2018-05-03T03:44:08.836Z,34.10
2018-05-03T03:46:37.279Z,32.47
2018-05-03T03:49:05.684Z,32.63
2018-05-03T03:51:34.012Z,35.03
2018-05-03T03:54:02.438Z,32.43
2018-05-03T03:56:30.739Z,33.20
2018-05-03T03:58:59.083Z,32.90
2018-05-03T04:01:27.404Z,31.03
2018-05-03T04:03:55.749Z,29.03
2018-05-03T04:06:24.080Z,28.67
2018-05-03T04:08:52.988Z,28.90
2018-05-03T04:11:21.320Z,27.37
2018-05-03T04:13:49.686Z,29.50
2018-05-03T04:16:18.110Z,27.03
2018-05-03T04:18:58.095Z,25.73
2018-05-03T04:21:38.340Z,27.73
2018-05-03T04:24:18.732Z,27.57
2018-05-03T04:26:47.046Z,28.30
2018-05-03T04:29:15.403Z,27.27
2018-05-03T04:31:43.730Z,27.07
2018-05-03T04:34:12.140Z,26.77
2018-05-03T04:36:40.537Z,27.93
2018-05-03T04:39:08.871Z,25.00
2018-05-03T04:41:37.224Z,24.10
2018-05-03T04:44:05.547Z,23.90
2018-05-03T04:46:33.893Z,26.43
2018-05-03T04:49:02.215Z,25.07
2018-05-03T04:51:30.632Z,25.97
2018-05-03T04:53:59.023Z,23.50
2018-05-03T04:56:27.349Z,22.20
2018-05-03T04:58:55.715Z,22.00
2018-05-03T05:01:24.059Z,25.67
2018-05-03T05:03:52.388Z,22.27
2018-05-03T05:06:20.724Z,24.43
2018-05-03T05:08:49.065Z,26.63
2018-05-03T05:11:17.458Z,23.13
2018-05-03T05:13:45.864Z,24.73
2018-05-03T05:16:14.306Z,26.93
2018-05-03T05:18:42.611Z,24.87
2018-05-03T05:21:10.999Z,24.53
2018-05-03T05:23:39.347Z,23.37
2018-05-03T05:26:07.665Z,22.07
2018-05-03T05:28:35.992Z,21.80
2018-05-03T05:31:04.402Z,20.40
2018-05-03T05:33:32.791Z,21.77
2018-05-03T05:36:01.123Z,20.33
2018-05-03T05:38:29.528Z,22.13
2018-05-03T05:40:57.838Z,22.30
2018-05-03T05:43:26.282Z,22.30
2018-05-03T05:45:54.657Z,23.83
2018-05-03T05:48:23.002Z,24.77
2018-05-03T05:50:51.337Z,23.10
2018-05-03T05:53:19.727Z,22.87
2018-05-03T05:55:48.043Z,22.50
2018-05-03T05:58:16.412Z,23.63
2018-05-03T06:00:44.732Z,23.70
2018-05-03T06:03:13.065Z,21.63
2018-05-03T06:05:41.479Z,24.90
2018-05-03T06:08:09.854Z,22.13
2018-05-03T06:10:38.328Z,21.87
2018-05-03T06:13:06.665Z,22.30
2018-05-03T06:15:35.327Z,22.03
2018-05-03T06:18:03.665Z,21.50
2018-05-03T06:20:32.046Z,22.47
2018-05-03T06:23:00.443Z,21.93
2018-05-03T06:25:28.993Z,23.23
2018-05-03T06:27:57.485Z,24.03
2018-05-03T06:30:25.858Z,23.60
2018-05-03T06:32:54.165Z,24.27
2018-05-03T06:35:22.503Z,23.57
2018-05-03T06:37:51.002Z,24.87
2018-05-03T06:40:19.351Z,23.03
2018-05-03T06:42:47.680Z,38.70
2018-05-03T06:45:16.119Z,26.10
2018-05-03T06:47:44.415Z,26.23
2018-05-03T06:50:12.775Z,24.10
2018-05-03T06:52:41.061Z,25.27
2018-05-03T06:55:09.450Z,23.70
2018-05-03T06:57:37.781Z,23.73
2018-05-03T07:00:06.134Z,25.60
2018-05-03T07:02:34.472Z,22.60
2018-05-03T07:05:02.776Z,21.40
2018-05-03T07:07:31.102Z,23.13
2018-05-03T07:09:59.462Z,23.00
2018-05-03T07:12:27.744Z,23.07
2018-05-03T07:14:56.091Z,23.40
2018-05-03T07:17:24.461Z,22.00
2018-05-03T07:19:52.798Z,20.93
2018-05-03T07:22:21.134Z,21.57
2018-05-03T07:24:49.537Z,19.40
2018-05-03T07:27:17.928Z,23.00
2018-05-03T07:29:46.426Z,21.70
2018-05-03T07:32:14.747Z,20.47
2018-05-03T07:34:43.203Z,21.90
2018-05-03T07:37:11.417Z,22.87
2018-05-03T07:39:39.793Z,23.37
2018-05-03T07:42:08.194Z,22.33
2018-05-03T07:44:36.572Z,22.73
2018-05-03T07:47:04.929Z,22.73
2018-05-03T07:49:33.419Z,21.57
2018-05-03T07:52:01.744Z,19.93
2018-05-03T07:54:30.070Z,22.03
2018-05-03T07:56:58.434Z,20.20
2018-05-03T07:59:26.754Z,20.90
2018-05-03T08:01:55.088Z,20.23
2018-05-03T08:04:23.419Z,20.30
2018-05-03T08:06:51.746Z,22.30
2018-05-03T08:09:20.063Z,20.87
2018-05-03T08:11:48.380Z,21.93
2018-05-03T08:14:16.705Z,28.77
2018-05-03T08:16:45.090Z,17.83
2018-05-03T08:19:13.482Z,24.03
2018-05-03T08:21:41.816Z,19.07
2018-05-03T08:24:10.142Z,18.37
2018-05-03T08:26:38.545Z,17.67
2018-05-03T08:29:06.888Z,16.60
2018-05-03T08:31:35.310Z,19.43
2018-05-03T08:34:03.635Z,17.87
2018-05-03T08:36:31.947Z,20.30
2018-05-03T08:39:00.284Z,17.40
2018-05-03T08:41:28.607Z,16.87
2018-05-03T08:43:56.972Z,17.80
2018-05-03T08:46:25.364Z,16.33
2018-05-03T08:48:53.735Z,28.43
2018-05-03T08:51:22.079Z,17.23
2018-05-03T08:53:50.445Z,17.00
2018-05-03T08:56:18.757Z,16.60
2018-05-03T08:58:47.120Z,16.20
2018-05-03T09:01:15.469Z,27.20
2018-05-03T09:03:43.804Z,18.27
2018-05-03T09:06:12.227Z,18.90
2018-05-03T09:08:40.541Z,15.83
2018-05-03T09:11:08.977Z,15.10
2018-05-03T09:13:37.400Z,14.87
2018-05-03T09:16:05.972Z,15.37
2018-05-03T09:18:34.316Z,15.20
2018-05-03T09:21:02.716Z,15.13
2018-05-03T09:23:31.022Z,13.83
2018-05-03T09:25:59.415Z,14.03
2018-05-03T09:28:27.732Z,12.70
2018-05-03T09:30:56.079Z,11.90
2018-05-03T09:33:24.502Z,13.73
2018-05-03T09:35:52.840Z,11.80
2018-05-03T09:38:21.162Z,12.37
2018-05-03T09:40:49.498Z,13.73
2018-05-03T09:43:17.844Z,13.80
2018-05-03T09:45:46.273Z,15.97
2018-05-03T09:48:14.609Z,13.90
2018-05-03T09:50:43.167Z,13.30
2018-05-03T09:53:11.481Z,14.50
2018-05-03T09:55:39.841Z,14.27
2018-05-03T09:58:08.171Z,13.80
2018-05-03T10:00:36.487Z,14.23
2018-05-03T10:03:04.813Z,15.33
2018-05-03T10:05:33.219Z,15.20
2018-05-03T10:08:01.538Z,17.60
2018-05-03T10:10:29.898Z,15.80
2018-05-03T10:12:58.298Z,14.70
2018-05-03T10:15:26.698Z,14.40
2018-05-03T10:17:55.039Z,16.47
2018-05-03T10:20:23.995Z,15.37
2018-05-03T10:22:52.368Z,14.60
2018-05-03T10:25:20.775Z,15.27
2018-05-03T10:27:49.098Z,15.30
2018-05-03T10:30:17.437Z,17.50
2018-05-03T10:32:45.859Z,14.47
2018-05-03T10:35:14.202Z,17.13
2018-05-03T10:37:42.528Z,15.20
2018-05-03T10:40:10.922Z,15.37
2018-05-03T10:42:39.354Z,15.67
2018-05-03T10:45:07.666Z,14.93
2018-05-03T10:47:35.995Z,14.90
2018-05-03T10:50:04.382Z,15.83
2018-05-03T10:52:32.704Z,14.33
2018-05-03T10:55:01.188Z,16.17
2018-05-03T10:57:29.600Z,15.43
2018-05-03T10:59:58.009Z,17.10
2018-05-03T11:02:26.342Z,14.80
2018-05-03T11:04:54.677Z,14.97
2018-05-03T11:07:23.021Z,14.67
2018-05-03T11:09:51.377Z,15.77
2018-05-03T11:12:20.295Z,12.93
2018-05-03T11:14:48.730Z,14.20
2018-05-03T11:17:17.131Z,14.40
2018-05-03T11:19:45.466Z,15.97
2018-05-03T11:22:13.796Z,12.80
2018-05-03T11:24:42.174Z,13.03
2018-05-03T11:27:10.505Z,13.33
2018-05-03T11:29:38.923Z,12.00
2018-05-03T11:32:07.298Z,11.90
2018-05-03T11:34:35.637Z,13.17
2018-05-03T11:37:04.066Z,12.33
2018-05-03T11:39:32.319Z,12.80
2018-05-03T11:42:00.700Z,11.70
2018-05-03T11:44:29.098Z,11.73
2018-05-03T11:46:57.499Z,12.90
2018-05-03T11:49:25.947Z,12.63
2018-05-03T11:51:54.313Z,14.00
2018-05-03T11:54:22.698Z,16.67
2018-05-03T11:56:51.075Z,13.23
2018-05-03T11:59:19.483Z,12.93
2018-05-03T12:01:47.858Z,13.50
2018-05-03T12:04:16.251Z,11.70
2018-05-03T12:06:44.587Z,13.17
2018-05-03T12:09:12.919Z,12.60
2018-05-03T12:11:41.945Z,11.50
2018-05-03T12:14:10.277Z,11.47
2018-05-03T12:16:38.619Z,10.67
2018-05-03T12:19:06.947Z,11.57
2018-05-03T12:21:35.283Z,11.10
2018-05-03T12:24:03.663Z,13.40
2018-05-03T12:26:32.080Z,11.23
2018-05-03T12:29:00.428Z,12.03
2018-05-03T12:31:28.754Z,9.77
2018-05-03T12:33:57.112Z,11.63
2018-05-03T12:36:25.456Z,11.67
2018-05-03T12:38:53.789Z,10.27
2018-05-03T12:41:22.103Z,10.47
2018-05-03T12:43:50.449Z,11.60
2018-05-03T12:46:18.817Z,12.73
2018-05-03T12:48:47.155Z,13.00
2018-05-03T12:51:15.479Z,11.17
2018-05-03T12:53:43.894Z,11.60
2018-05-03T12:56:12.282Z,10.57
2018-05-03T12:58:40.635Z,11.50
2018-05-03T13:01:08.956Z,11.00
2018-05-03T13:03:37.317Z,10.83
2018-05-03T13:06:05.646Z,11.50
2018-05-03T13:08:34.029Z,11.47
2018-05-03T13:11:02.361Z,10.67
2018-05-03T13:13:30.692Z,11.43
2018-05-03T13:15:59.063Z,12.60
2018-05-03T13:18:27.375Z,12.40
2018-05-03T13:20:55.716Z,12.00
2018-05-03T13:23:24.070Z,12.77
2018-05-03T13:25:52.441Z,13.10
2018-05-03T13:28:20.773Z,13.07
2018-05-03T13:30:49.148Z,12.37
2018-05-03T13:33:17.478Z,12.63
2018-05-03T13:35:45.856Z,12.97
2018-05-03T13:38:14.248Z,13.80
2018-05-03T13:40:42.585Z,12.00
2018-05-03T13:43:11.026Z,13.43
2018-05-03T13:45:39.381Z,11.27
2018-05-03T13:48:07.746Z,12.40
2018-05-03T13:50:36.105Z,12.73
2018-05-03T13:53:04.468Z,12.90
2018-05-03T13:55:32.850Z,11.07
2018-05-03T13:58:01.188Z,12.67
2018-05-03T14:00:29.515Z,12.70
2018-05-03T14:02:57.829Z,12.47
2018-05-03T14:05:26.245Z,12.13
2018-05-03T14:07:54.642Z,12.73
2018-05-03T14:10:22.994Z,13.23
2018-05-03T14:12:51.344Z,13.47
2018-05-03T14:15:19.711Z,11.67
2018-05-03T14:17:48.080Z,12.27
2018-05-03T14:20:16.409Z,11.90
2018-05-03T14:22:44.760Z,14.07
2018-05-03T14:25:13.087Z,13.20
2018-05-03T14:27:41.451Z,12.23
2018-05-03T14:30:09.862Z,10.97
2018-05-03T14:32:38.240Z,12.53
2018-05-03T14:35:06.583Z,11.47
2018-05-03T14:37:34.962Z,11.40
2018-05-03T14:40:03.315Z,12.07
2018-05-03T14:42:31.644Z,10.73
2018-05-03T14:45:00.052Z,11.07
2018-05-03T14:47:28.406Z,11.97
2018-05-03T14:49:56.729Z,13.07
2018-05-03T14:52:25.095Z,11.03
2018-05-03T14:54:53.439Z,21.43
2018-05-03T14:57:21.788Z,11.93
2018-05-03T14:59:50.141Z,12.00
2018-05-03T15:02:18.490Z,13.33
2018-05-03T15:04:46.943Z,11.17
2018-05-03T15:07:15.266Z,11.80
2018-05-03T15:09:43.618Z,11.83
2018-05-03T15:12:11.947Z,11.30
2018-05-03T15:14:40.299Z,11.77
2018-05-03T15:17:08.636Z,11.07
2018-05-03T15:19:36.958Z,10.67
2018-05-03T15:22:05.280Z,10.43
2018-05-03T15:24:33.687Z,9.57
2018-05-03T15:27:01.999Z,8.53
2018-05-03T15:29:30.330Z,8.20
2018-05-03T15:31:58.662Z,12.13
2018-05-03T15:34:27.522Z,8.17
2018-05-03T15:36:56.032Z,8.43
2018-05-03T15:39:24.452Z,9.47
2018-05-03T15:41:52.873Z,13.07
2018-05-03T15:44:21.214Z,8.87
2018-05-03T15:46:49.528Z,8.00
2018-05-03T15:49:17.854Z,9.67
2018-05-03T15:51:46.219Z,7.33
2018-05-03T15:54:14.544Z,7.93
2018-05-03T15:56:42.858Z,10.87
2018-05-03T15:59:11.195Z,7.03
2018-05-03T16:01:39.535Z,7.83
2018-05-03T16:04:08.866Z,10.30
2018-05-03T16:06:37.184Z,7.70
2018-05-03T16:09:06.447Z,6.57
2018-05-03T16:11:34.775Z,6.57
2018-05-03T16:14:03.115Z,9.93
2018-05-03T16:16:31.479Z,10.07
2018-05-03T16:19:00.069Z,6.93
2018-05-03T16:21:28.403Z,6.60
2018-05-03T16:23:56.729Z,7.97
2018-05-03T16:26:25.068Z,7.13
2018-05-03T16:28:54.361Z,6.03
2018-05-03T16:31:22.707Z,6.33
2018-05-03T16:33:51.027Z,6.27
2018-05-03T16:36:19.386Z,6.93
2018-05-03T16:38:47.715Z,7.83
2018-05-03T16:41:16.068Z,6.60
2018-05-03T16:43:44.386Z,6.47
2018-05-03T16:46:12.710Z,7.13
2018-05-03T16:48:41.042Z,9.93
2018-05-03T16:51:09.391Z,11.73
2018-05-03T16:53:37.955Z,6.83
2018-05-03T16:56:06.298Z,7.20
2018-05-03T16:58:34.607Z,6.93
2018-05-03T17:01:03.063Z,7.80
2018-05-03T17:03:31.390Z,7.90
2018-05-03T17:06:00.725Z,8.37
2018-05-03T17:08:29.062Z,7.47
2018-05-03T17:10:57.381Z,8.93
2018-05-03T17:13:25.728Z,6.40
2018-05-03T17:15:54.046Z,6.67
2018-05-03T17:18:22.401Z,8.87
2018-05-03T17:20:50.743Z,9.57
2018-05-03T17:23:23.571Z,8.90
2018-05-03T17:25:51.927Z,8.53
2018-05-03T17:28:20.370Z,10.07
2018-05-03T17:30:48.787Z,7.83
2018-05-03T17:33:17.166Z,7.40
2018-05-03T17:35:46.284Z,8.30
2018-05-03T17:38:14.622Z,8.50
2018-05-03T17:40:42.966Z,9.83
2018-05-03T17:43:11.299Z,8.10
2018-05-03T17:45:39.633Z,9.73
2018-05-03T17:48:08.025Z,8.17
2018-05-03T17:50:36.419Z,8.97
2018-05-03T17:53:04.884Z,8.50
2018-05-03T17:55:33.229Z,9.50
2018-05-03T17:58:01.547Z,9.27
2018-05-03T18:00:29.863Z,8.93
2018-05-03T18:02:58.177Z,9.03
2018-05-03T18:05:26.525Z,8.27
2018-05-03T18:07:55.013Z,9.93
2018-05-03T18:10:23.391Z,10.13
2018-05-03T18:12:51.799Z,12.67
2018-05-03T18:15:20.156Z,9.87
2018-05-03T18:17:48.491Z,11.83
2018-05-03T18:20:16.932Z,10.17
2018-05-03T18:22:45.265Z,10.27
2018-05-03T18:25:13.635Z,11.50
2018-05-03T18:27:41.955Z,10.57
2018-05-03T18:30:10.392Z,11.53
2018-05-03T18:32:38.822Z,11.93
2018-05-03T18:35:07.124Z,11.63
2018-05-03T18:37:35.566Z,10.87
2018-05-03T18:40:03.959Z,11.03
2018-05-03T18:42:32.306Z,11.27
2018-05-03T18:45:00.635Z,10.40
2018-05-03T18:47:28.988Z,10.33
2018-05-03T18:49:57.378Z,9.03
2018-05-03T18:52:25.735Z,11.40
2018-05-03T18:54:54.063Z,9.43
2018-05-03T18:57:22.417Z,12.17
2018-05-03T18:59:50.762Z,10.07
2018-05-03T19:02:19.188Z,11.53
2018-05-03T19:04:47.647Z,11.03
2018-05-03T19:07:15.966Z,13.83
2018-05-03T19:09:44.342Z,10.97
2018-05-03T19:12:12.681Z,11.00
2018-05-03T19:14:41.014Z,9.87
2018-05-03T19:17:09.386Z,10.27
2018-05-03T19:19:37.729Z,9.10
2018-05-03T19:22:06.105Z,11.53
2018-05-03T19:24:34.464Z,9.17
2018-05-03T19:27:02.815Z,9.37
2018-05-03T19:29:31.128Z,8.50
2018-05-03T19:31:59.453Z,7.80
2018-05-03T19:34:27.765Z,9.97
2018-05-03T19:36:56.139Z,9.60
2018-05-03T19:39:24.559Z,8.20
2018-05-03T19:41:52.954Z,8.57
2018-05-03T19:44:21.290Z,8.70
2018-05-03T19:46:49.615Z,6.33
2018-05-03T19:49:17.957Z,8.13
2018-05-03T19:51:46.331Z,7.23
2018-05-03T19:54:14.699Z,7.77
2018-05-03T19:56:43.004Z,8.23
2018-05-03T19:59:11.393Z,8.93
2018-05-03T20:01:39.806Z,6.17
2018-05-03T20:04:08.219Z,5.93
2018-05-03T20:06:36.577Z,6.67
2018-05-03T20:09:04.912Z,5.30
2018-05-03T20:11:33.249Z,6.93
2018-05-03T20:14:01.596Z,5.70
2018-05-03T20:16:29.937Z,8.20
2018-05-03T20:18:58.328Z,9.30
2018-05-03T20:21:26.717Z,5.60
2018-05-03T20:23:55.035Z,5.57
2018-05-03T20:26:23.378Z,7.13
2018-05-03T20:28:51.819Z,6.33
2018-05-03T20:31:20.140Z,5.87
2018-05-03T20:33:49.492Z,6.43
2018-05-03T20:36:17.991Z,5.33
2018-05-03T20:38:46.325Z,8.70
2018-05-03T20:41:14.626Z,7.53
2018-05-03T20:43:43.265Z,8.57
2018-05-03T20:46:11.773Z,7.67
2018-05-03T20:48:40.063Z,11.40
2018-05-03T20:51:08.475Z,8.40
2018-05-03T20:53:36.797Z,8.20
2018-05-03T20:56:05.111Z,8.80
2018-05-03T20:58:33.532Z,7.77
2018-05-03T21:01:01.838Z,17.27
2018-05-03T21:03:30.179Z,8.40
2018-05-03T21:05:58.497Z,8.47
2018-05-03T21:08:26.885Z,9.47
2018-05-03T21:10:55.213Z,6.70
2018-05-03T21:13:23.538Z,9.63
2018-05-03T21:15:51.874Z,10.67
2018-05-03T21:18:20.212Z,8.13
2018-05-03T21:20:48.738Z,6.30
2018-05-03T21:23:17.098Z,5.87
2018-05-03T21:25:45.413Z,4.67
2018-05-03T21:28:13.818Z,6.87
2018-05-03T21:30:42.168Z,5.13
2018-05-03T21:33:10.504Z,5.43
2018-05-03T21:35:38.887Z,8.73
2018-05-03T21:38:07.220Z,6.00
2018-05-03T21:40:35.551Z,8.77
2018-05-03T21:43:03.980Z,5.90
2018-05-03T21:45:32.299Z,5.00
2018-05-03T21:48:00.612Z,3.90
2018-05-03T21:50:28.963Z,7.93
2018-05-03T21:52:57.353Z,3.90
2018-05-03T21:55:25.659Z,3.57
2018-05-03T21:57:53.995Z,4.53
2018-05-03T22:00:22.344Z,6.13
2018-05-03T22:02:50.708Z,9.73
2018-05-03T22:05:19.026Z,3.87
2018-05-03T22:07:47.384Z,4.83
2018-05-03T22:10:15.726Z,4.93
2018-05-03T22:12:44.052Z,3.40
2018-05-03T22:15:12.443Z,2.80
2018-05-03T22:17:40.776Z,5.87
2018-05-03T22:20:09.095Z,8.60
2018-05-03T22:22:37.498Z,7.47
2018-05-03T22:25:05.816Z,4.33
2018-05-03T22:27:34.158Z,5.83
2018-05-03T22:33:01.666Z,3.50
2018-05-03T22:35:30.132Z,4.20
2018-05-03T22:37:58.593Z,5.70
2018-05-03T22:40:26.966Z,4.40
2018-05-03T22:42:55.291Z,3.77
2018-05-03T22:45:23.630Z,6.90
2018-05-03T22:47:51.962Z,2.27
2018-05-03T22:50:20.281Z,7.90
2018-05-03T22:52:48.670Z,4.37
2018-05-03T22:55:16.986Z,4.33
2018-05-03T22:57:45.316Z,4.80
2018-05-03T23:00:13.637Z,5.40
2018-05-03T23:02:41.948Z,2.93
2018-05-03T23:05:10.269Z,2.03
2018-05-03T23:07:38.606Z,5.43
2018-05-03T23:10:06.943Z,3.30
2018-05-03T23:12:35.278Z,6.77
2018-05-03T23:15:03.607Z,2.37
2018-05-03T23:17:31.935Z,3.90
2018-05-03T23:20:00.343Z,5.50
2018-05-03T23:22:32.595Z,5.20
2018-05-03T23:25:00.925Z,2.00
2018-05-03T23:27:29.247Z,3.40
2018-05-03T23:29:57.603Z,5.13
2018-05-03T23:32:26.000Z,7.43
2018-05-03T23:34:54.410Z,8.33
2018-05-03T23:37:22.727Z,2.63
2018-05-03T23:39:51.078Z,2.13
2018-05-03T23:42:19.397Z,4.13
2018-05-03T23:44:47.754Z,7.60
2018-05-03T23:47:16.165Z,6.70
2018-05-03T23:49:44.551Z,4.23
2018-05-03T23:52:12.895Z,3.77
2018-05-03T23:54:41.236Z,6.63
2018-05-03T23:57:09.555Z,4.03
2018-05-03T23:59:37.922Z,3.67
